createdAt,value
2019-05-03T00:02:29.599Z,27.93
2019-05-03T00:05:02.446Z,30.33
2019-05-03T00:07:32.184Z,33.13
2019-05-03T00:10:02.845Z,33.83
2019-05-03T00:12:32.819Z,30.27
2019-05-03T00:15:06.879Z,29.40
2019-05-03T00:17:36.040Z,26.10
2019-05-03T00:20:07.133Z,27.97
2019-05-03T00:22:36.326Z,28.10
2019-05-03T00:25:08.481Z,28.37
2019-05-03T00:27:37.875Z,34.80
2019-05-03T00:30:08.366Z,28.37
2019-05-03T00:32:37.608Z,31.63
2019-05-03T00:35:14.721Z,28.47
2019-05-03T00:37:45.519Z,31.23
2019-05-03T00:40:29.969Z,26.20
2019-05-03T00:42:59.130Z,32.47
2019-05-03T00:45:28.363Z,28.90
2019-05-03T00:47:57.554Z,30.73
2019-05-03T00:50:26.775Z,31.20
2019-05-03T00:52:55.931Z,27.60
2019-05-03T00:55:25.125Z,32.73
2019-05-03T00:57:54.284Z,28.43
2019-05-03T01:00:23.708Z,27.50
2019-05-03T01:02:52.897Z,25.87
2019-05-03T01:05:22.681Z,29.77
2019-05-03T01:07:52.586Z,26.00
2019-05-03T01:10:22.594Z,26.87
2019-05-03T01:12:52.549Z,30.70
2019-05-03T01:15:23.456Z,28.27
2019-05-03T01:17:52.642Z,31.30
2019-05-03T01:20:22.539Z,28.60
2019-05-03T01:22:52.031Z,31.63
2019-05-03T01:25:30.143Z,31.50
2019-05-03T01:27:52.265Z,30.47
2019-05-03T01:30:22.633Z,32.90
2019-05-03T01:32:52.420Z,28.17
2019-05-03T01:35:22.072Z,29.57
2019-05-03T01:37:51.798Z,33.40
2019-05-03T01:40:21.979Z,31.17
2019-05-03T01:42:51.936Z,30.43
2019-05-03T01:45:22.758Z,32.23
2019-05-03T01:48:08.966Z,32.73
2019-05-03T01:50:48.903Z,32.97
2019-05-03T01:53:21.566Z,30.83
2019-05-03T01:55:53.686Z,32.57
2019-05-03T01:58:23.396Z,26.00
2019-05-03T02:01:02.695Z,30.13
2019-05-03T02:03:52.288Z,26.10
2019-05-03T02:06:22.390Z,28.23
2019-05-03T02:08:52.206Z,29.77
2019-05-03T02:11:22.259Z,29.60
2019-05-03T02:13:52.183Z,29.17
2019-05-03T02:16:21.942Z,27.93
2019-05-03T02:18:51.847Z,32.50
2019-05-03T02:21:21.715Z,31.20
2019-05-03T02:23:52.105Z,31.93
2019-05-03T02:26:22.447Z,33.23
2019-05-03T02:28:52.711Z,35.73
2019-05-03T02:31:23.107Z,34.93
2019-05-03T02:33:53.309Z,34.93
2019-05-03T02:36:23.472Z,29.30
2019-05-03T02:38:53.754Z,32.47
2019-05-03T02:41:23.488Z,32.90
2019-05-03T02:43:57.088Z,32.07
2019-05-03T02:46:30.711Z,32.13
2019-05-03T02:49:10.468Z,35.93
2019-05-03T02:51:39.638Z,39.80
2019-05-03T02:54:08.859Z,35.23
2019-05-03T02:56:38.048Z,34.67
2019-05-03T02:59:07.207Z,32.80
2019-05-03T03:01:36.694Z,41.07
2019-05-03T03:04:06.251Z,31.37
2019-05-03T03:06:37.033Z,36.93
2019-05-03T03:09:07.344Z,34.73
2019-05-03T03:11:39.365Z,34.50
2019-05-03T03:14:11.675Z,35.07
2019-05-03T03:16:45.543Z,32.67
2019-05-03T03:19:17.242Z,33.77
2019-05-03T03:21:50.784Z,34.03
2019-05-03T03:24:22.549Z,35.93
2019-05-03T03:26:56.319Z,35.20
2019-05-03T03:29:26.731Z,38.20
2019-05-03T03:32:10.113Z,33.27
2019-05-03T03:35:03.944Z,37.57
2019-05-03T03:37:32.043Z,36.77
2019-05-03T03:40:01.578Z,38.00
2019-05-03T03:42:32.437Z,37.60
2019-05-03T03:45:06.065Z,38.07
2019-05-03T03:47:37.859Z,37.27
2019-05-03T03:50:09.038Z,42.30
2019-05-03T03:52:40.392Z,39.20
2019-05-03T03:55:10.530Z,38.93
2019-05-03T03:57:40.026Z,39.40
2019-05-03T04:00:09.924Z,37.10
2019-05-03T04:02:40.763Z,37.40
2019-05-03T04:05:10.587Z,41.47
2019-05-03T04:07:40.525Z,41.13
2019-05-03T04:10:10.874Z,46.17
2019-05-03T04:12:41.922Z,40.57
2019-05-03T04:15:21.390Z,40.30
2019-05-03T04:17:52.405Z,43.53
2019-05-03T04:20:26.021Z,41.70
2019-05-03T04:22:56.050Z,50.57
2019-05-03T04:25:26.560Z,50.27
2019-05-03T04:27:56.266Z,47.67
2019-05-03T04:30:26.122Z,45.93
2019-05-03T04:32:56.434Z,46.80
2019-05-03T04:35:26.758Z,47.07
2019-05-03T04:37:56.464Z,47.97
2019-05-03T04:40:26.139Z,45.93
2019-05-03T04:42:55.844Z,42.00
2019-05-03T04:45:25.857Z,46.20
2019-05-03T04:47:55.983Z,44.37
2019-05-03T04:50:25.909Z,38.00
2019-05-03T04:52:56.601Z,40.03
2019-05-03T04:55:26.802Z,39.63
2019-05-03T04:57:56.438Z,40.37
2019-05-03T05:00:26.655Z,39.53
2019-05-03T05:02:55.901Z,44.20
2019-05-03T05:05:26.067Z,36.73
2019-05-03T05:07:56.067Z,38.37
2019-05-03T05:10:26.006Z,32.97
2019-05-03T05:12:55.681Z,38.30
2019-05-03T05:15:26.407Z,34.97
2019-05-03T05:18:16.053Z,34.20
2019-05-03T05:21:04.467Z,34.67
2019-05-03T05:23:35.382Z,37.10
2019-05-03T05:26:09.059Z,34.63
2019-05-03T05:28:44.624Z,33.30
2019-05-03T05:31:15.120Z,27.43
2019-05-03T05:33:44.734Z,29.53
2019-05-03T05:36:15.299Z,33.23
2019-05-03T05:38:45.115Z,32.40
2019-05-03T05:41:15.886Z,30.50
2019-05-03T05:43:45.043Z,31.40
2019-05-03T05:46:14.780Z,30.07
2019-05-03T05:48:49.580Z,25.53
2019-05-03T05:51:18.739Z,22.70
2019-05-03T05:53:47.878Z,23.07
2019-05-03T05:56:18.719Z,18.70
2019-05-03T05:58:52.748Z,21.37
2019-05-03T06:01:25.028Z,21.00
2019-05-03T06:03:55.080Z,25.30
2019-05-03T06:06:35.214Z,22.37
2019-05-03T06:09:20.404Z,16.70
2019-05-03T06:12:06.404Z,16.80
2019-05-03T06:14:39.928Z,12.87
2019-05-03T06:17:19.611Z,14.47
2019-05-03T06:19:50.402Z,10.27
2019-05-03T06:22:26.728Z,11.60
2019-05-03T06:24:57.515Z,7.67
2019-05-03T06:27:31.386Z,11.43
2019-05-03T06:30:02.216Z,10.93
2019-05-03T06:32:34.524Z,14.07
2019-05-03T06:35:05.420Z,14.70
2019-05-03T06:37:36.374Z,12.53
2019-05-03T06:40:07.364Z,8.80
2019-05-03T06:42:36.510Z,9.97
2019-05-03T06:45:10.190Z,6.93
2019-05-03T06:47:40.299Z,11.07
2019-05-03T06:50:09.472Z,10.10
2019-05-03T06:52:38.729Z,7.93
2019-05-03T06:55:10.641Z,13.53
2019-05-03T06:57:45.645Z,10.50
2019-05-03T07:00:30.711Z,9.73
2019-05-03T07:03:01.505Z,6.40
2019-05-03T07:05:38.375Z,6.03
2019-05-03T07:08:25.474Z,11.07
2019-05-03T07:10:56.329Z,11.47
2019-05-03T07:13:25.568Z,10.73
2019-05-03T07:15:56.056Z,8.73
2019-05-03T07:18:25.431Z,11.23
2019-05-03T07:20:57.092Z,6.67
2019-05-03T07:23:26.518Z,14.53
2019-05-03T07:25:55.720Z,8.63
2019-05-03T07:28:24.975Z,8.90
2019-05-03T07:30:54.736Z,10.30
2019-05-03T07:33:28.517Z,7.80
2019-05-03T07:35:57.813Z,10.50
2019-05-03T07:38:27.023Z,10.53
2019-05-03T07:40:56.595Z,9.20
2019-05-03T07:43:25.738Z,11.13
2019-05-03T07:45:55.369Z,13.03
2019-05-03T07:48:25.500Z,8.83
2019-05-03T07:50:55.156Z,10.33
2019-05-03T07:53:25.207Z,6.90
2019-05-03T07:56:05.486Z,7.73
2019-05-03T07:58:39.521Z,9.33
2019-05-03T08:01:26.543Z,10.30
2019-05-03T08:03:55.691Z,7.70
2019-05-03T08:06:24.877Z,12.40
2019-05-03T08:08:54.564Z,10.80
2019-05-03T08:11:24.853Z,8.60
2019-05-03T08:13:54.982Z,11.50
2019-05-03T08:16:25.265Z,13.53
2019-05-03T08:18:55.821Z,19.80
2019-05-03T08:21:25.405Z,11.13
2019-05-03T08:23:55.655Z,9.80
2019-05-03T08:26:25.655Z,12.07
2019-05-03T08:28:55.423Z,17.40
2019-05-03T08:31:38.509Z,12.13
2019-05-03T08:34:15.409Z,12.50
2019-05-03T08:36:58.649Z,12.30
2019-05-03T08:39:27.811Z,14.77
2019-05-03T08:41:58.598Z,9.37
2019-05-03T08:44:28.170Z,10.00
2019-05-03T08:46:59.067Z,9.67
2019-05-03T08:49:28.563Z,11.13
2019-05-03T08:51:57.822Z,8.37
2019-05-03T08:54:27.283Z,12.17
2019-05-03T08:56:57.159Z,8.97
2019-05-03T08:59:31.792Z,6.03
2019-05-03T09:01:57.176Z,6.87
2019-05-03T09:04:36.083Z,10.57
2019-05-03T09:06:57.299Z,10.43
2019-05-03T09:09:31.209Z,7.60
2019-05-03T09:12:00.425Z,11.07
2019-05-03T09:14:41.484Z,12.50
2019-05-03T09:17:01.502Z,14.67
2019-05-03T09:19:31.326Z,6.47
2019-05-03T09:22:00.630Z,9.57
2019-05-03T09:24:29.866Z,9.40
2019-05-03T09:26:59.167Z,11.60
2019-05-03T09:29:40.292Z,9.67
2019-05-03T09:31:59.229Z,16.87
2019-05-03T09:34:29.866Z,9.90
2019-05-03T09:36:59.050Z,5.77
2019-05-03T09:39:28.275Z,5.03
2019-05-03T09:41:57.422Z,6.80
2019-05-03T09:44:26.631Z,6.97
2019-05-03T09:46:55.845Z,9.57
2019-05-03T09:49:25.412Z,7.83
2019-05-03T09:51:55.072Z,9.10
2019-05-03T09:54:26.098Z,4.93
2019-05-03T09:57:00.220Z,9.43
2019-05-03T09:59:30.336Z,8.70
2019-05-03T10:02:04.463Z,11.53
2019-05-03T10:04:33.483Z,7.70
2019-05-03T10:07:02.669Z,10.93
2019-05-03T10:09:32.059Z,10.20
2019-05-03T10:12:02.181Z,8.63
2019-05-03T10:14:31.445Z,10.27
2019-05-03T10:17:07.894Z,6.30
2019-05-03T10:19:40.308Z,10.47
2019-05-03T10:22:08.067Z,10.60
2019-05-03T10:24:37.223Z,9.50
2019-05-03T10:27:06.405Z,8.00
2019-05-03T10:29:35.563Z,8.10
2019-05-03T10:32:09.406Z,9.00
2019-05-03T10:34:38.598Z,7.20
2019-05-03T10:37:09.390Z,10.27
2019-05-03T10:39:38.546Z,6.07
2019-05-03T10:42:07.812Z,9.80
2019-05-03T10:44:36.978Z,10.53
2019-05-03T10:47:06.198Z,9.97
2019-05-03T10:49:35.555Z,7.03
2019-05-03T10:52:06.600Z,13.63
2019-05-03T10:54:36.000Z,6.93
2019-05-03T10:57:09.488Z,8.23
2019-05-03T10:59:38.629Z,8.60
2019-05-03T11:02:25.670Z,7.90
2019-05-03T11:04:55.376Z,11.50
2019-05-03T11:07:25.681Z,9.83
2019-05-03T11:09:55.251Z,12.63
2019-05-03T11:12:25.459Z,10.07
2019-05-03T11:14:54.939Z,10.67
2019-05-03T11:17:25.646Z,10.40
2019-05-03T11:19:55.166Z,11.37
2019-05-03T11:22:25.202Z,10.87
2019-05-03T11:24:54.755Z,10.70
2019-05-03T11:27:42.124Z,6.50
2019-05-03T11:30:15.642Z,9.20
2019-05-03T11:32:45.875Z,8.37
2019-05-03T11:35:16.751Z,3.77
2019-05-03T11:37:50.435Z,6.37
2019-05-03T11:40:19.822Z,12.47
2019-05-03T11:42:50.306Z,10.57
2019-05-03T11:45:19.922Z,5.40
2019-05-03T11:47:49.173Z,12.17
2019-05-03T11:50:18.555Z,8.60
2019-05-03T11:52:47.846Z,7.37
2019-05-03T11:55:17.141Z,6.87
2019-05-03T11:57:46.495Z,4.93
2019-05-03T12:00:20.118Z,6.00
2019-05-03T12:02:55.632Z,8.73
2019-05-03T12:05:26.423Z,10.47
2019-05-03T12:07:55.654Z,14.60
2019-05-03T12:10:36.303Z,6.63
2019-05-03T12:12:57.532Z,6.73
2019-05-03T12:15:26.841Z,9.67
2019-05-03T12:18:00.631Z,7.00
2019-05-03T12:20:31.766Z,7.83
2019-05-03T12:23:02.060Z,7.50
2019-05-03T12:25:32.486Z,11.70
2019-05-03T12:28:05.636Z,10.10
2019-05-03T12:30:35.321Z,11.03
2019-05-03T12:33:06.012Z,5.50
2019-05-03T12:35:38.365Z,9.07
2019-05-03T12:38:07.608Z,14.00
2019-05-03T12:40:37.087Z,7.87
2019-05-03T12:43:06.365Z,6.47
2019-05-03T12:45:35.957Z,7.87
2019-05-03T12:48:05.304Z,5.17
2019-05-03T12:50:34.959Z,6.77
2019-05-03T12:53:04.988Z,12.10
2019-05-03T12:55:37.467Z,6.60
2019-05-03T12:58:06.807Z,7.80
2019-05-03T13:00:55.679Z,5.73
2019-05-03T13:03:26.318Z,7.60
2019-05-03T13:05:55.648Z,5.70
2019-05-03T13:08:41.160Z,8.20
2019-05-03T13:11:10.593Z,10.47
2019-05-03T13:13:39.759Z,6.93
2019-05-03T13:16:10.468Z,8.20
2019-05-03T13:18:39.632Z,11.07
2019-05-03T13:21:08.889Z,5.43
2019-05-03T13:23:38.100Z,5.47
2019-05-03T13:26:07.647Z,9.03
2019-05-03T13:28:37.030Z,9.27
2019-05-03T13:31:06.334Z,7.20
2019-05-03T13:33:35.513Z,10.27
2019-05-03T13:36:05.677Z,9.47
2019-05-03T13:38:35.264Z,12.43
2019-05-03T13:41:06.583Z,4.80
2019-05-03T13:43:36.166Z,5.87
2019-05-03T13:46:05.708Z,11.37
2019-05-03T13:48:42.505Z,7.10
2019-05-03T13:51:05.822Z,8.37
2019-05-03T13:53:35.085Z,6.77
2019-05-03T13:56:05.051Z,9.50
2019-05-03T13:58:35.795Z,9.43
2019-05-03T14:01:06.131Z,7.33
2019-05-03T14:03:35.919Z,7.93
2019-05-03T14:06:08.671Z,5.40
2019-05-03T14:08:35.974Z,12.17
2019-05-03T14:11:05.664Z,8.93
2019-05-03T14:13:35.622Z,5.50
2019-05-03T14:16:06.046Z,10.00
2019-05-03T14:18:35.939Z,5.80
2019-05-03T14:21:14.971Z,9.33
2019-05-03T14:24:01.642Z,6.37
2019-05-03T14:26:30.904Z,7.40
2019-05-03T14:29:00.375Z,5.10
2019-05-03T14:31:29.694Z,7.60
2019-05-03T14:33:58.883Z,8.07
2019-05-03T14:36:28.034Z,4.37
2019-05-03T14:38:57.187Z,8.30
2019-05-03T14:41:26.466Z,7.60
2019-05-03T14:43:55.860Z,10.97
2019-05-03T14:46:32.558Z,6.13
2019-05-03T14:48:56.251Z,9.27
2019-05-03T14:51:25.782Z,11.97
2019-05-03T14:53:56.992Z,10.67
2019-05-03T14:56:30.618Z,9.00
2019-05-03T14:59:19.643Z,7.27
2019-05-03T15:01:55.215Z,9.53
2019-05-03T15:04:25.504Z,4.77
2019-05-03T15:06:57.713Z,9.77
2019-05-03T15:09:25.793Z,7.00
2019-05-03T15:11:54.952Z,8.37
2019-05-03T15:14:25.147Z,9.43
2019-05-03T15:16:55.768Z,10.53
2019-05-03T15:19:25.490Z,7.40
2019-05-03T15:21:54.900Z,9.00
2019-05-03T15:24:25.191Z,7.20
2019-05-03T15:26:55.355Z,8.57
2019-05-03T15:29:24.954Z,8.07
2019-05-03T15:31:55.307Z,8.97
2019-05-03T15:34:24.816Z,10.40
2019-05-03T15:36:54.645Z,10.17
2019-05-03T15:39:24.261Z,7.63
2019-05-03T15:41:54.402Z,9.13
2019-05-03T15:44:41.243Z,8.03
2019-05-03T15:47:12.057Z,5.90
2019-05-03T15:49:41.270Z,8.00
2019-05-03T15:52:12.116Z,7.30
2019-05-03T15:54:41.272Z,8.73
2019-05-03T15:57:10.422Z,9.87
2019-05-03T15:59:39.609Z,6.13
2019-05-03T16:02:08.772Z,10.23
2019-05-03T16:04:37.930Z,9.00
2019-05-03T16:07:07.207Z,5.27
2019-05-03T16:09:36.492Z,6.17
2019-05-03T16:12:05.987Z,8.67
2019-05-03T16:14:35.182Z,9.83
2019-05-03T16:17:04.495Z,9.17
2019-05-03T16:19:35.454Z,9.50
2019-05-03T16:22:05.352Z,10.80
2019-05-03T16:24:35.540Z,8.90
2019-05-03T16:27:21.378Z,8.17
2019-05-03T16:29:50.527Z,8.17
2019-05-03T16:32:19.703Z,10.97
2019-05-03T16:34:48.979Z,12.20
2019-05-03T16:37:18.139Z,10.33
2019-05-03T16:39:47.304Z,15.70
2019-05-03T16:42:16.515Z,10.60
2019-05-03T16:44:46.801Z,11.97
2019-05-03T16:47:15.954Z,10.73
2019-05-03T16:49:45.133Z,10.43
2019-05-03T16:52:14.711Z,6.50
2019-05-03T16:54:45.417Z,9.83
2019-05-03T16:57:17.471Z,8.10
2019-05-03T16:59:45.788Z,6.43
2019-05-03T17:02:17.448Z,8.23
2019-05-03T17:04:59.784Z,7.47
2019-05-03T17:07:46.650Z,5.67
2019-05-03T17:10:27.997Z,19.00
2019-05-03T17:12:57.161Z,13.83
2019-05-03T17:15:27.231Z,7.97
2019-05-03T17:17:56.433Z,16.23
2019-05-03T17:20:25.605Z,13.30
2019-05-03T17:22:55.493Z,11.37
2019-05-03T17:25:25.009Z,9.50
2019-05-03T17:27:54.368Z,19.23
2019-05-03T17:30:32.571Z,13.40
2019-05-03T17:32:55.157Z,15.60
2019-05-03T17:35:25.143Z,15.37
2019-05-03T17:37:54.689Z,16.47
2019-05-03T17:40:28.976Z,11.27
2019-05-03T17:43:02.826Z,12.23
2019-05-03T17:45:45.994Z,10.27
2019-05-03T17:48:15.153Z,10.43
2019-05-03T17:50:45.429Z,16.50
2019-05-03T17:53:19.063Z,16.77
2019-05-03T17:56:06.053Z,20.77
2019-05-03T17:58:40.627Z,14.93
2019-05-03T18:01:29.503Z,12.63
2019-05-03T18:04:19.685Z,10.37
2019-05-03T18:07:05.278Z,9.77
2019-05-03T18:09:36.195Z,10.73
2019-05-03T18:12:06.393Z,12.10
2019-05-03T18:14:35.611Z,10.57
2019-05-03T18:17:05.703Z,12.23
2019-05-03T18:19:35.184Z,16.60
2019-05-03T18:22:05.309Z,13.40
2019-05-03T18:24:35.270Z,10.03
2019-05-03T18:27:05.501Z,13.17
2019-05-03T18:29:34.897Z,10.17
2019-05-03T18:32:06.102Z,10.50
2019-05-03T18:34:35.318Z,12.73
2019-05-03T18:37:06.792Z,9.63
2019-05-03T18:39:36.007Z,10.90
2019-05-03T18:42:07.048Z,7.07
2019-05-03T18:44:37.846Z,7.70
2019-05-03T18:47:08.759Z,8.30
2019-05-03T18:49:37.914Z,8.43
2019-05-03T18:52:07.061Z,13.83
2019-05-03T18:54:36.282Z,12.70
2019-05-03T18:57:05.527Z,8.07
2019-05-03T18:59:34.893Z,8.43
2019-05-03T19:02:05.464Z,10.60
2019-05-03T19:04:45.024Z,10.93
2019-05-03T19:07:18.279Z,12.27
2019-05-03T19:09:49.135Z,6.67
2019-05-03T19:12:22.744Z,11.53
2019-05-03T19:14:51.903Z,12.23
2019-05-03T19:17:41.118Z,13.73
2019-05-03T19:20:12.249Z,11.40
2019-05-03T19:22:41.398Z,9.70
2019-05-03T19:25:11.321Z,9.43
2019-05-03T19:27:40.481Z,10.17
2019-05-03T19:30:11.482Z,12.80
2019-05-03T19:32:41.056Z,10.17
2019-05-03T19:35:10.468Z,16.00
2019-05-03T19:37:39.758Z,13.63
2019-05-03T19:40:10.000Z,9.80
2019-05-03T19:42:39.222Z,15.17
2019-05-03T19:45:09.720Z,22.70
2019-05-03T19:47:38.905Z,25.73
2019-05-03T19:50:08.758Z,19.90
2019-05-03T19:52:42.309Z,16.10
2019-05-03T19:55:11.941Z,16.07
2019-05-03T19:57:42.759Z,18.47
2019-05-03T20:00:12.445Z,18.87
2019-05-03T20:02:45.276Z,20.73
2019-05-03T20:05:21.765Z,20.23
2019-05-03T20:07:54.248Z,22.43
2019-05-03T20:10:25.402Z,24.63
2019-05-03T20:12:55.625Z,22.97
2019-05-03T20:15:24.908Z,25.27
2019-05-03T20:17:59.853Z,32.03
2019-05-03T20:20:24.919Z,31.73
2019-05-03T20:22:54.863Z,22.50
2019-05-03T20:25:24.634Z,24.00
2019-05-03T20:27:55.825Z,24.40
2019-05-03T20:30:25.590Z,30.50
2019-05-03T20:32:55.611Z,21.17
2019-05-03T20:35:25.335Z,23.80
2019-05-03T20:37:55.443Z,27.80
2019-05-03T20:40:25.588Z,24.20
2019-05-03T20:42:56.945Z,27.53
2019-05-03T20:45:30.727Z,23.77
2019-05-03T20:48:00.861Z,19.70
2019-05-03T20:50:30.018Z,18.93
2019-05-03T20:52:59.203Z,24.00
2019-05-03T20:55:29.252Z,21.53
2019-05-03T20:57:58.493Z,18.90
2019-05-03T21:00:27.686Z,21.87
2019-05-03T21:02:58.062Z,21.50
2019-05-03T21:05:31.753Z,22.30
2019-05-03T21:07:58.182Z,23.93
2019-05-03T21:10:27.336Z,23.87
2019-05-03T21:12:56.488Z,20.70
2019-05-03T21:15:27.415Z,19.97
2019-05-03T21:18:10.679Z,21.47
2019-05-03T21:20:45.063Z,21.13
2019-05-03T21:23:35.202Z,21.40
2019-05-03T21:26:12.484Z,24.70
2019-05-03T21:28:38.159Z,17.33
2019-05-03T21:31:07.310Z,18.27
2019-05-03T21:33:36.509Z,18.50
2019-05-03T21:36:05.674Z,19.60
2019-05-03T21:38:35.537Z,18.70
2019-05-03T21:41:05.574Z,17.43
2019-05-03T21:43:34.983Z,29.10
2019-05-03T21:46:06.170Z,26.37
2019-05-03T21:48:55.248Z,30.73
2019-05-03T21:51:24.525Z,27.27
2019-05-03T21:53:53.840Z,20.73
2019-05-03T21:56:24.825Z,26.93
2019-05-03T21:58:55.325Z,29.13
2019-05-03T22:01:26.103Z,28.17
2019-05-03T22:03:55.585Z,28.83
2019-05-03T22:06:24.840Z,27.90
2019-05-03T22:08:55.463Z,24.27
2019-05-03T22:11:25.248Z,30.17
2019-05-03T22:13:57.156Z,33.77
2019-05-03T22:16:40.048Z,34.80
2019-05-03T22:19:09.347Z,34.83
2019-05-03T22:21:40.770Z,34.47
2019-05-03T22:24:20.443Z,40.43
2019-05-03T22:27:07.021Z,29.43
2019-05-03T22:29:37.165Z,33.07
2019-05-03T22:32:06.320Z,31.47
2019-05-03T22:34:36.306Z,32.67
2019-05-03T22:37:06.334Z,26.30
2019-05-03T22:39:35.550Z,28.40
2019-05-03T22:42:06.033Z,25.17
2019-05-03T22:44:35.754Z,32.23
2019-05-03T22:47:05.628Z,35.60
2019-05-03T22:49:37.164Z,29.03
2019-05-03T22:52:06.829Z,31.07
2019-05-03T22:54:36.257Z,32.23
2019-05-03T22:57:05.484Z,28.47
2019-05-03T22:59:34.667Z,30.60
2019-05-03T23:02:03.842Z,29.70
2019-05-03T23:04:35.471Z,32.30
2019-05-03T23:07:05.555Z,30.67
2019-05-03T23:09:35.250Z,27.57
2019-05-03T23:12:05.548Z,34.00
2019-05-03T23:14:34.893Z,33.60
2019-05-03T23:17:04.226Z,29.10
2019-05-03T23:19:35.327Z,31.23
2019-05-03T23:22:15.387Z,25.27
2019-05-03T23:24:44.812Z,26.80
2019-05-03T23:27:14.417Z,26.87
2019-05-03T23:29:45.456Z,33.93
2019-05-03T23:32:15.394Z,31.80
2019-05-03T23:34:46.279Z,30.00
2019-05-03T23:37:15.532Z,36.33
2019-05-03T23:39:44.765Z,34.30
2019-05-03T23:42:15.501Z,33.87
2019-05-03T23:44:45.626Z,40.50
2019-05-03T23:47:29.134Z,41.07
2019-05-03T23:49:58.460Z,38.63
2019-05-03T23:52:29.250Z,40.80
2019-05-03T23:55:00.123Z,42.67
2019-05-03T23:57:30.021Z,45.77
2019-05-03T23:59:59.313Z,50.37
